Time;durP1;ratioP1;P1;durP2;ratioP2;P2;SDS_P1;SDS_P2;PMS_P1;PMS_P2;Temp;Humidity;BMP_temperature;BMP_pressure;BME280_temperature;BME280_humidity;BME280_pressure;Samples;Min_cycle;Max_cycle;Signal;HPM_P1;HPM_P2
2022/10/13 00:00:25;;;;;;;;;33.00;30.75;;;;;16.36;67.68;101703.88;5061175;28;45322;-71
2022/10/13 00:02:50;;;;;;;;;42.75;35.00;;;;;16.36;67.94;101717.34;5056942;28;45484;-72
2022/10/13 00:05:16;;;;;;;;;34.50;31.75;;;;;16.36;68.17;101711.06;5057122;28;45318;-72
2022/10/13 00:07:41;;;;;;;;;39.00;33.00;;;;;16.33;67.97;101720.25;5057485;28;45802;-71
2022/10/13 00:10:07;;;;;;;;;29.75;29.00;;;;;16.11;67.67;101681.34;5064409;28;45566;-72
2022/10/13 00:12:37;;;;;;;;;39.75;33.75;;;;;15.92;68.02;101645.84;5093126;27;46984;-72
2022/10/13 00:15:06;;;;;;;;;31.50;30.00;;;;;16.32;68.27;101723.91;5075488;28;45334;-71
2022/10/13 00:17:32;;;;;;;;;35.50;32.25;;;;;16.33;68.10;101722.06;5067245;28;45411;-71
2022/10/13 00:19:57;;;;;;;;;37.25;32.75;;;;;16.33;68.45;101711.28;5058868;27;45371;-72
2022/10/13 00:22:23;;;;;;;;;34.50;30.00;;;;;16.19;68.09;101688.88;5055109;28;46367;-72
2022/10/13 00:24:52;;;;;;;;;32.00;31.00;;;;;15.94;68.01;101641.25;5056788;28;45550;-71
2022/10/13 00:27:18;;;;;;;;;30.00;30.00;;;;;16.11;68.59;101664.31;5057232;28;45361;-71
2022/10/13 00:29:43;;;;;;;;;32.75;30.50;;;;;16.05;68.30;101645.91;5057056;28;45275;-71
2022/10/13 00:32:09;;;;;;;;;31.75;28.00;;;;;16.07;68.02;101639.41;5055480;28;47321;-71
2022/10/13 00:34:36;;;;;;;;;29.75;29.50;;;;;16.19;68.29;101642.25;5057179;28;45338;-71
2022/10/13 00:37:02;;;;;;;;;33.25;30.75;;;;;16.32;68.56;101672.75;5055582;28;45296;-71
2022/10/13 00:39:27;;;;;;;;;33.00;32.00;;;;;16.29;68.46;101665.75;5057217;28;45495;-71
2022/10/13 00:41:53;;;;;;;;;28.00;24.75;;;;;16.30;68.32;101672.84;5055468;28;47502;-71
2022/10/13 00:44:55;;;;;;;;;33.25;29.50;;;;;16.29;68.52;101681.00;5056906;28;45604;-71
2022/10/13 00:47:20;;;;;;;;;29.25;28.75;;;;;16.29;68.13;101681.00;5056908;28;45331;-71
2022/10/13 00:49:48;;;;;;;;;34.00;31.50;;;;;16.17;68.39;101663.00;5056969;28;45402;-71
2022/10/13 00:52:16;;;;;;;;;37.75;33.75;;;;;16.27;68.14;101681.13;5056653;28;45411;-71
2022/10/13 00:54:41;;;;;;;;;26.50;26.50;;;;;16.05;68.23;101645.91;5057220;28;45476;-71
2022/10/13 00:57:08;;;;;;;;;32.00;28.50;;;;;15.79;68.55;101609.00;5057115;28;45412;-71
2022/10/13 00:59:36;;;;;;;;;28.50;28.50;;;;;16.26;68.59;101675.84;5056798;28;45189;-72
2022/10/13 01:02:02;;;;;;;;;31.25;29.25;;;;;16.25;68.68;101676.81;5056697;28;46772;-71
2022/10/13 01:04:37;;;;;;;;;29.75;29.50;;;;;15.79;68.39;101609.00;5056795;28;45402;-71
2022/10/13 01:07:03;;;;;;;;;33.25;28.75;;;;;16.22;68.58;101683.28;5057180;28;45459;-71
2022/10/13 01:09:36;;;;;;;;;34.00;31.50;;;;;15.33;68.24;101541.31;5057385;28;45364;-71
2022/10/13 01:12:13;;;;;;;;;35.00;32.00;;;;;16.22;68.93;101675.22;5075453;28;45328;-71
2022/10/13 01:14:52;;;;;;;;;30.00;27.50;;;;;16.10;68.76;101662.56;5075334;28;45415;-70
2022/10/13 01:17:31;;;;;;;;;31.00;29.50;;;;;16.22;68.84;101668.94;5075693;28;45376;-70
2022/10/13 01:20:14;;;;;;;;;30.00;28.00;;;;;16.21;68.73;101664.53;5078274;28;45293;-70
2022/10/13 01:23:01;;;;;;;;;28.25;27.50;;;;;16.18;68.52;101679.06;5078095;28;45595;-70
2022/10/13 01:25:51;;;;;;;;;25.75;25.00;;;;;16.13;68.78;101660.53;5076510;27;45389;-70
2022/10/13 01:28:29;;;;;;;;;35.00;30.25;;;;;16.19;68.85;101669.16;5076105;28;45408;-70
2022/10/13 01:30:59;;;;;;;;;34.00;30.50;;;;;16.17;69.25;101655.81;5076067;28;45479;-72
2022/10/13 01:33:39;;;;;;;;;33.75;30.00;;;;;16.17;68.67;101652.25;5075709;28;45402;-72
2022/10/13 01:36:30;;;;;;;;;28.50;25.75;;;;;15.34;68.84;101522.38;5075390;28;45346;-72
2022/10/13 01:39:14;;;;;;;;;28.25;26.75;;;;;16.13;68.97;101647.09;5076011;28;45403;-72
2022/10/13 01:41:45;;;;;;;;;33.00;28.50;;;;;16.16;68.99;101648.72;5075836;28;45478;-72
2022/10/13 01:44:22;;;;;;;;;32.00;30.00;;;;;16.13;69.05;101654.31;5075618;28;46601;-71
2022/10/13 01:46:50;;;;;;;;;30.75;29.50;;;;;16.13;69.17;101667.78;5074769;28;45397;-72
2022/10/13 01:49:19;;;;;;;;;31.25;27.50;;;;;16.12;69.35;101669.56;5075884;28;45663;-72
2022/10/13 01:51:46;;;;;;;;;29.00;27.75;;;;;15.52;69.41;101557.06;5075731;28;45353;-72
2022/10/13 01:54:12;;;;;;;;;23.50;22.25;;;;;16.16;69.73;101650.56;5075836;28;46728;-72
2022/10/13 01:56:37;;;;;;;;;33.00;29.25;;;;;16.16;69.65;101650.56;5075987;28;45296;-71
2022/10/13 01:59:12;;;;;;;;;26.75;26.75;;;;;16.17;69.28;101649.56;5075872;28;45364;-72
2022/10/13 02:02:14;;;;;;;;;25.75;25.75;;;;;16.18;69.72;101657.53;5076062;28;45495;-72
2022/10/13 02:04:59;;;;;;;;;25.75;24.25;;;;;16.19;69.55;101648.50;5074649;28;46210;-71
2022/10/13 02:07:43;;;;;;;;;25.75;25.75;;;;;16.21;68.95;101641.19;5075782;28;45385;-71
2022/10/13 02:10:27;;;;;;;;;29.00;26.75;;;;;16.22;69.21;101637.53;5075934;28;45526;-70
2022/10/13 02:13:02;;;;;;;;;17.25;15.25;;;;;16.19;68.45;101631.47;5075747;27;45325;-70
2022/10/13 02:15:34;;;;;;;;;20.25;19.00;;;;;16.22;69.07;101626.75;5075346;28;46328;-72
2022/10/13 02:18:01;;;;;;;;;18.50;17.00;;;;;16.16;69.16;101604.78;5075498;28;45400;-72
2022/10/13 02:20:26;;;;;;;;;15.50;13.00;;;;;16.27;68.80;101629.13;5075992;28;45316;-71
2022/10/13 02:22:58;;;;;;;;;12.75;10.25;;;;;16.26;69.00;101635.47;5075614;27;45417;-72
2022/10/13 02:25:24;;;;;;;;;9.75;9.75;;;;;16.11;69.00;101607.78;5075485;28;45443;-71
2022/10/13 02:27:51;;;;;;;;;13.75;11.00;;;;;16.20;69.08;101617.91;5075104;27;45417;-72
2022/10/13 02:30:23;;;;;;;;;10.25;10.00;;;;;16.27;69.18;101623.75;5075461;28;45338;-71
2022/10/13 02:32:48;;;;;;;;;8.00;7.00;;;;;16.13;69.54;101590.56;5075236;28;45384;-71
2022/10/13 02:35:13;;;;;;;;;10.75;7.75;;;;;16.31;69.29;101614.47;5075368;28;45371;-71
2022/10/13 02:37:39;;;;;;;;;8.25;7.00;;;;;16.30;69.17;101608.25;5075218;28;45441;-71
2022/10/13 02:40:05;;;;;;;;;6.00;6.00;;;;;16.39;68.86;101587.88;5075547;28;45360;-71
2022/10/13 02:42:30;;;;;;;;;12.25;9.00;;;;;16.11;69.19;101524.34;5075524;28;45355;-71
2022/10/13 02:44:55;;;;;;;;;6.00;5.00;;;;;16.50;68.94;101586.25;5075664;28;45340;-72
2022/10/13 02:47:21;;;;;;;;;8.75;8.75;;;;;16.39;68.54;101569.03;5075600;28;45377;-71
2022/10/13 02:49:46;;;;;;;;;10.00;8.75;;;;;16.53;68.63;101591.41;5075613;28;45424;-71
2022/10/13 02:52:11;;;;;;;;;8.75;8.00;;;;;16.53;69.29;101591.41;5075821;27;45524;-72
2022/10/13 02:54:37;;;;;;;;;9.00;9.00;;;;;16.54;69.18;101588.63;5075205;27;45405;-71
2022/10/13 02:57:02;;;;;;;;;11.75;8.00;;;;;16.54;69.22;101593.16;5074831;28;45389;-72
2022/10/13 02:59:28;;;;;;;;;9.00;9.00;;;;;16.54;68.96;101595.84;5074977;28;45414;-71
2022/10/13 03:01:53;;;;;;;;;10.50;8.75;;;;;16.54;69.37;101594.00;5074928;28;45447;-72
2022/10/13 03:04:18;;;;;;;;;10.25;9.75;;;;;16.56;69.38;101592.06;5074938;28;46317;-71
2022/10/13 03:06:44;;;;;;;;;12.50;11.00;;;;;16.56;69.39;101586.69;5074992;28;45387;-71
2022/10/13 03:09:10;;;;;;;;;10.75;9.00;;;;;16.55;69.24;101589.50;5069966;27;45468;-71
2022/10/13 03:11:35;;;;;;;;;7.50;7.25;;;;;16.52;69.39;101579.81;5074218;28;45520;-71
2022/10/13 03:14:01;;;;;;;;;11.25;9.25;;;;;16.53;69.50;101586.03;5074390;28;46268;-72
2022/10/13 03:16:26;;;;;;;;;10.00;9.25;;;;;16.54;69.55;101577.00;5077575;28;45303;-71
2022/10/13 03:18:51;;;;;;;;;10.00;9.00;;;;;16.50;69.55;101570.09;5078481;28;45337;-71
2022/10/13 03:21:17;;;;;;;;;9.50;9.50;;;;;16.52;68.95;101576.22;5077054;28;45540;-71
2022/10/13 03:23:42;;;;;;;;;9.25;9.25;;;;;16.53;69.13;101564.50;5077405;28;46060;-71
2022/10/13 03:26:08;;;;;;;;;9.25;7.75;;;;;16.42;68.85;101544.56;5077843;28;45403;-71
2022/10/13 03:28:33;;;;;;;;;10.75;10.75;;;;;16.53;69.26;101565.34;5078264;28;45443;-72
2022/10/13 03:31:01;;;;;;;;;11.25;9.00;;;;;16.54;69.48;101574.31;5077426;28;45568;-71
2022/10/13 03:33:27;;;;;;;;;7.00;6.00;;;;;16.43;69.53;101546.28;5078094;28;47171;-71
2022/10/13 03:35:52;;;;;;;;;13.00;11.75;;;;;16.50;69.59;101545.88;5077684;28;45407;-71
2022/10/13 03:38:17;;;;;;;;;7.75;7.75;;;;;16.42;69.66;101525.72;5077435;28;45539;-71
2022/10/13 03:40:43;;;;;;;;;11.50;10.00;;;;;16.52;69.53;101535.84;5077349;27;45497;-71
2022/10/13 03:43:08;;;;;;;;;10.25;9.75;;;;;16.08;69.34;101460.00;5076914;27;45538;-71
2022/10/13 03:45:33;;;;;;;;;7.00;7.00;;;;;16.52;69.14;101538.53;5093336;27;46375;-71
2022/10/13 03:47:59;;;;;;;;;8.50;8.50;;;;;16.52;68.85;101538.53;5093819;27;45294;-71
2022/10/13 03:50:25;;;;;;;;;10.00;9.75;;;;;16.52;69.22;101541.22;5078636;27;45248;-71
2022/10/13 03:52:50;;;;;;;;;6.75;6.75;;;;;16.10;69.51;101461.59;5094245;27;47315;-71
2022/10/13 03:55:16;;;;;;;;;9.25;8.25;;;;;16.50;69.62;101527.88;5077597;27;45305;-72
2022/10/13 03:57:41;;;;;;;;;9.50;8.50;;;;;16.51;69.35;101517.97;5077831;27;45277;-71
2022/10/13 04:00:09;;;;;;;;;10.25;9.25;;;;;16.51;69.34;101531.44;5077694;27;45381;-71
2022/10/13 04:02:35;;;;;;;;;8.75;8.75;;;;;16.52;69.37;101533.13;5077791;27;47138;-72
2022/10/13 04:05:00;;;;;;;;;10.50;8.00;;;;;16.44;69.77;101517.56;5077573;27;45360;-72
2022/10/13 04:07:25;;;;;;;;;10.25;8.75;;;;;16.52;69.28;101527.75;5077845;27;45412;-72
2022/10/13 04:09:51;;;;;;;;;10.75;10.25;;;;;16.35;69.26;101505.59;5077551;27;45302;-72
2022/10/13 04:12:16;;;;;;;;;10.50;10.50;;;;;16.51;69.15;101529.59;5078026;28;46189;-71
2022/10/13 04:14:41;;;;;;;;;9.00;9.00;;;;;16.51;69.57;101529.59;5077725;28;45432;-71
2022/10/13 04:17:07;;;;;;;;;9.25;8.75;;;;;16.51;69.51;101539.53;5076110;28;45357;-71
2022/10/13 04:19:32;;;;;;;;;9.00;7.50;;;;;16.50;69.26;101543.19;5077665;28;45453;-71
2022/10/13 04:21:57;;;;;;;;;10.25;8.50;;;;;16.50;69.22;101535.09;5077444;28;46072;-71
2022/10/13 04:24:23;;;;;;;;;9.25;8.25;;;;;16.51;69.08;101529.59;5077269;28;45314;-72
2022/10/13 04:26:48;;;;;;;;;9.75;9.75;;;;;16.46;69.20;101532.59;5075191;28;45324;-71
2022/10/13 04:29:14;;;;;;;;;8.75;8.75;;;;;16.20;68.72;101504.00;5075683;28;45515;-71
2022/10/13 04:31:42;;;;;;;;;8.75;8.00;;;;;16.43;69.04;101548.97;5077462;27;45337;-71
2022/10/13 04:34:08;;;;;;;;;6.50;6.25;;;;;16.44;69.48;101547.19;5080013;28;45413;-71
2022/10/13 04:36:33;;;;;;;;;8.50;6.00;;;;;16.44;69.24;101539.09;5080444;28;45431;-71
2022/10/13 04:38:59;;;;;;;;;8.25;8.25;;;;;16.44;69.43;101539.94;5077375;28;45374;-72
2022/10/13 04:41:24;;;;;;;;;9.75;8.75;;;;;16.46;69.32;101540.69;5077421;28;45484;-72
2022/10/13 04:43:51;;;;;;;;;8.75;8.25;;;;;16.48;69.30;101543.28;5077091;28;45422;-69
2022/10/13 04:46:19;;;;;;;;;11.00;9.00;;;;;16.39;69.65;101536.72;5092893;27;45430;-72
2022/10/13 04:48:46;;;;;;;;;9.25;7.75;;;;;16.39;69.33;101525.94;5076789;28;45346;-71
2022/10/13 04:51:14;;;;;;;;;6.75;6.75;;;;;16.35;69.75;101527.13;5075663;28;46206;-71
2022/10/13 04:53:40;;;;;;;;;7.00;7.00;;;;;16.37;69.92;101522.53;5076761;28;45447;-72
2022/10/13 04:56:08;;;;;;;;;13.25;9.50;;;;;16.40;69.91;101516.91;5076685;28;45440;-72
2022/10/13 04:58:35;;;;;;;;;8.50;7.75;;;;;16.43;69.92;101522.06;5076957;27;45401;-72
2022/10/13 05:01:02;;;;;;;;;9.50;8.00;;;;;16.05;69.73;101455.69;5076676;28;45910;-72
2022/10/13 05:03:28;;;;;;;;;10.00;10.00;;;;;16.45;69.60;101520.13;5076846;28;45402;-72
2022/10/13 05:05:54;;;;;;;;;10.25;9.50;;;;;16.41;69.81;101526.72;5076028;27;45420;-71
2022/10/13 05:08:20;;;;;;;;;9.00;8.00;;;;;16.30;70.20;101511.31;5075299;28;45522;-72
2022/10/13 05:10:59;;;;;;;;;7.00;7.00;;;;;16.38;70.20;101529.59;5076346;27;45337;-72
2022/10/13 05:13:24;;;;;;;;;8.75;7.50;;;;;16.37;69.88;101521.63;5076778;28;45312;-72
2022/10/13 05:15:50;;;;;;;;;10.25;10.25;;;;;16.33;70.81;101520.13;5076478;28;45368;-72
2022/10/13 05:18:16;;;;;;;;;9.50;8.50;;;;;16.26;70.47;101517.03;5076133;28;45338;-72
2022/10/13 05:20:41;;;;;;;;;8.25;8.00;;;;;15.86;70.86;101450.75;5074637;28;47113;-71
2022/10/13 05:23:07;;;;;;;;;11.25;8.75;;;;;16.20;71.16;101514.78;5075818;27;45305;-71
2022/10/13 05:25:34;;;;;;;;;11.25;9.75;;;;;15.52;70.95;101409.19;5076366;28;45339;-71
2022/10/13 05:27:59;;;;;;;;;8.75;8.00;;;;;16.03;71.46;101491.75;5075765;28;45377;-71
2022/10/13 05:30:25;;;;;;;;;7.00;7.00;;;;;16.17;71.36;101513.16;5075464;28;45535;-71
2022/10/13 05:32:50;;;;;;;;;7.00;6.00;;;;;16.20;71.07;101507.56;5074311;28;45400;-70
2022/10/13 05:35:15;;;;;;;;;8.75;8.50;;;;;16.19;70.75;101496.91;5074199;28;45476;-70
2022/10/13 05:37:41;;;;;;;;;9.25;7.75;;;;;16.20;71.38;101510.25;5074883;28;45508;-70
2022/10/13 05:40:07;;;;;;;;;11.25;7.00;;;;;15.81;71.02;101426.00;5074787;28;46223;-70
2022/10/13 05:42:34;;;;;;;;;9.25;8.00;;;;;16.03;71.43;101446.00;5075190;28;45332;-70
2022/10/13 05:45:00;;;;;;;;;6.75;6.75;;;;;16.24;71.07;101481.28;5075461;28;45324;-70
2022/10/13 05:47:27;;;;;;;;;8.25;7.00;;;;;16.23;71.28;101480.41;5075239;28;45398;-70
2022/10/13 05:49:53;;;;;;;;;8.00;8.00;;;;;16.26;71.00;101476.63;5074779;27;46418;-70
2022/10/13 05:52:20;;;;;;;;;6.50;6.50;;;;;15.90;71.13;101411.00;5075031;27;45376;-71
2022/10/13 05:54:49;;;;;;;;;10.00;8.00;;;;;16.31;71.11;101471.78;5074986;28;45383;-71
2022/10/13 05:57:22;;;;;;;;;6.50;6.50;;;;;16.31;71.08;101487.94;5075100;28;45295;-70
2022/10/13 05:59:52;;;;;;;;;7.00;7.00;;;;;16.29;70.88;101487.19;5073424;28;47170;-71
2022/10/13 06:02:21;;;;;;;;;8.75;7.50;;;;;16.32;70.55;101497.75;5075158;27;45426;-70
2022/10/13 06:04:52;;;;;;;;;10.25;7.00;;;;;16.29;70.41;101504.22;5075001;28;45409;-70
2022/10/13 06:07:18;;;;;;;;;6.50;5.75;;;;;16.31;70.96;101504.09;5075064;27;45445;-70
2022/10/13 06:09:44;;;;;;;;;8.00;6.75;;;;;16.29;70.45;101497.94;5074558;28;45559;-70
2022/10/13 06:12:09;;;;;;;;;6.50;5.50;;;;;16.39;70.13;101508.94;5074983;28;45321;-71
2022/10/13 06:14:35;;;;;;;;;8.50;8.50;;;;;16.36;70.14;101501.06;5074800;28;45448;-70
2022/10/13 06:17:00;;;;;;;;;7.50;7.00;;;;;16.25;70.10;101480.28;5074883;28;45416;-70
2022/10/13 06:19:25;;;;;;;;;5.50;5.00;;;;;16.32;69.83;101497.75;5074560;28;45486;-70
2022/10/13 06:21:51;;;;;;;;;8.00;8.00;;;;;15.99;69.37;101464.19;5074985;27;45418;-70
2022/10/13 06:24:16;;;;;;;;;5.75;5.75;;;;;15.84;69.25;101419.53;5091139;27;45340;-70
2022/10/13 06:26:42;;;;;;;;;7.00;5.75;;;;;16.17;69.39;101474.59;5074829;28;45598;-70
2022/10/13 06:29:07;;;;;;;;;6.00;6.00;;;;;16.26;69.04;101487.41;5074808;28;45398;-70
2022/10/13 06:31:33;;;;;;;;;5.00;5.00;;;;;16.21;68.90;101497.63;5074950;28;45403;-70
2022/10/13 06:33:58;;;;;;;;;5.75;5.75;;;;;16.10;68.93;101464.28;5073422;28;45347;-70
2022/10/13 06:36:24;;;;;;;;;6.25;6.00;;;;;16.23;68.70;101479.56;5074718;27;45361;-69
2022/10/13 06:38:49;;;;;;;;;6.50;6.25;;;;;16.23;69.03;101487.63;5074648;28;45553;-70
2022/10/13 06:41:14;;;;;;;;;9.75;9.00;;;;;15.74;68.90;101420.16;5074178;28;45405;-69
2022/10/13 06:43:40;;;;;;;;;7.25;4.75;;;;;16.13;68.94;101493.66;5073936;27;45990;-69
2022/10/13 06:46:06;;;;;;;;;6.75;6.25;;;;;16.10;68.97;101493.91;5074519;28;45490;-70
2022/10/13 06:48:31;;;;;;;;;6.50;6.50;;;;;16.14;69.29;101491.81;5074322;27;46413;-70
2022/10/13 06:51:05;;;;;;;;;7.00;7.00;;;;;15.96;69.07;101469.78;5077692;28;45277;-70
2022/10/13 06:53:31;;;;;;;;;5.25;5.25;;;;;16.05;69.34;101479.06;5076626;28;45362;-70
2022/10/13 06:56:02;;;;;;;;;5.75;5.00;;;;;16.17;69.70;101488.06;5077516;28;45262;-70
2022/10/13 06:58:27;;;;;;;;;8.50;6.50;;;;;15.75;69.44;101438.03;5077862;28;45627;-69
2022/10/13 07:00:53;;;;;;;;;9.50;7.25;;;;;16.15;69.09;101498.94;5077682;28;45449;-70
2022/10/13 07:03:19;;;;;;;;;7.00;7.00;;;;;16.10;69.56;101487.63;5077429;28;45386;-69
2022/10/13 07:05:45;;;;;;;;;7.00;7.00;;;;;16.10;69.47;101496.59;5077964;28;45398;-69
2022/10/13 07:08:10;;;;;;;;;4.25;3.00;;;;;15.90;69.84;101475.59;5093268;27;46220;-69
2022/10/13 07:10:39;;;;;;;;;4.00;4.00;;;;;16.12;69.93;101505.41;5076147;28;45470;-69
2022/10/13 07:13:05;;;;;;;;;5.25;5.25;;;;;16.07;69.59;101493.25;5077793;28;45393;-69
2022/10/13 07:15:30;;;;;;;;;6.00;5.00;;;;;16.18;69.90;101512.16;5077218;28;45476;-70
2022/10/13 07:17:56;;;;;;;;;4.50;2.00;;;;;16.12;70.63;101510.78;5077240;27;46322;-70
2022/10/13 07:20:22;;;;;;;;;7.00;5.00;;;;;15.96;70.94;101485.94;5076655;28;45356;-69
2022/10/13 07:22:48;;;;;;;;;7.50;6.00;;;;;16.12;71.34;101513.47;5077857;28;45599;-70
2022/10/13 07:25:13;;;;;;;;;6.50;6.50;;;;;15.73;72.22;101453.41;5077766;28;45244;-69
2022/10/13 07:27:39;;;;;;;;;6.00;6.00;;;;;15.98;74.00;101517.16;5077131;27;46279;-70
2022/10/13 07:30:07;;;;;;;;;6.25;6.25;;;;;15.93;74.19;101518.44;5077581;28;45289;-72
2022/10/13 07:32:33;;;;;;;;;7.50;5.50;;;;;15.93;74.10;101523.81;5077963;28;45452;-72
2022/10/13 07:34:58;;;;;;;;;8.25;6.00;;;;;15.84;74.67;101527.16;5076720;28;45479;-72
2022/10/13 07:37:24;;;;;;;;;5.50;5.00;;;;;15.71;74.44;101510.94;5077989;28;46129;-71
2022/10/13 07:39:50;;;;;;;;;9.75;6.50;;;;;15.79;74.77;101527.41;5078162;28;45439;-68
2022/10/13 07:42:16;;;;;;;;;8.50;6.50;;;;;15.51;74.44;101456.72;5078331;28;45597;-69
2022/10/13 07:44:41;;;;;;;;;7.00;5.75;;;;;15.85;73.82;101510.91;5078693;28;45556;-70
2022/10/13 07:47:07;;;;;;;;;6.00;5.50;;;;;15.93;73.90;101537.28;5077169;28;45460;-70
2022/10/13 07:49:32;;;;;;;;;7.00;6.00;;;;;15.94;73.94;101536.31;5077330;28;45382;-70
2022/10/13 07:51:58;;;;;;;;;3.00;3.00;;;;;15.66;74.19;101489.75;5077244;28;45549;-70
2022/10/13 07:54:23;;;;;;;;;5.00;4.75;;;;;15.87;74.36;101535.88;5077921;28;45473;-70
2022/10/13 07:56:52;;;;;;;;;8.25;7.00;;;;;15.94;74.66;101533.63;5077089;28;45361;-70
2022/10/13 07:59:18;;;;;;;;;6.25;6.25;;;;;15.93;73.87;101546.19;5078027;28;45334;-69
2022/10/13 08:01:44;;;;;;;;;5.75;5.00;;;;;15.85;73.95;101524.34;5076570;28;45452;-70
2022/10/13 08:04:09;;;;;;;;;7.25;5.75;;;;;15.66;74.03;101495.13;5077645;28;45281;-70
2022/10/13 08:06:34;;;;;;;;;9.00;7.00;;;;;15.94;74.20;101536.31;5075786;28;46019;-70
2022/10/13 08:09:00;;;;;;;;;5.75;5.75;;;;;15.91;74.34;101537.38;5076970;28;45300;-71
2022/10/13 08:11:26;;;;;;;;;7.00;7.00;;;;;15.89;74.44;101550.06;5076984;27;45351;-70
2022/10/13 08:13:52;;;;;;;;;6.75;5.00;;;;;15.83;73.73;101545.13;5075734;28;45527;-70
2022/10/13 08:16:18;;;;;;;;;2.75;1.75;;;;;15.78;73.40;101550.78;5076313;28;45795;-70
2022/10/13 08:18:45;;;;;;;;;4.00;4.00;;;;;15.84;74.01;101541.44;5076884;28;45349;-70
2022/10/13 08:21:16;;;;;;;;;7.00;4.50;;;;;15.83;73.16;101544.25;5076936;28;45316;-69
2022/10/13 08:23:42;;;;;;;;;5.25;4.50;;;;;15.82;73.77;101538.03;5076946;28;45417;-71
2022/10/13 08:26:24;;;;;;;;;5.00;4.00;;;;;15.88;73.31;101534.03;5076384;28;47341;-70
2022/10/13 08:28:49;;;;;;;;;7.25;7.25;;;;;16.01;73.20;101542.09;5076182;28;45749;-70
2022/10/13 08:31:15;;;;;;;;;6.75;5.25;;;;;16.06;72.57;101551.59;5076488;28;45438;-71
2022/10/13 08:33:40;;;;;;;;;4.50;4.50;;;;;16.16;72.28;101548.28;5076746;28;45406;-71
2022/10/13 08:36:07;;;;;;;;;4.25;4.25;;;;;16.20;72.65;101565.94;5076110;28;47360;-71
2022/10/13 08:38:33;;;;;;;;;4.00;4.00;;;;;16.25;71.55;101544.91;5076571;28;45375;-69
2022/10/13 08:40:59;;;;;;;;;4.50;4.00;;;;;16.17;72.50;101526.63;5076504;28;45414;-69
2022/10/13 08:43:25;;;;;;;;;6.50;6.25;;;;;16.44;70.92;101558.78;5076593;28;45455;-70
2022/10/13 08:45:55;;;;;;;;;6.25;5.00;;;;;16.51;71.19;101550.28;5076069;28;46511;-70
2022/10/13 08:48:24;;;;;;;;;5.00;3.00;;;;;16.56;71.36;101546.28;5074653;28;45940;-71
2022/10/13 08:50:53;;;;;;;;;5.00;5.00;;;;;16.50;70.45;101548.56;5074835;28;45304;-71
2022/10/13 08:53:46;;;;;;;;;4.50;3.25;;;;;16.48;70.46;101537.91;5076182;28;45674;-70
2022/10/13 08:56:14;;;;;;;;;3.25;2.00;;;;;16.60;70.29;101547.78;5075329;27;46422;-70
2022/10/13 08:58:41;;;;;;;;;3.50;3.25;;;;;16.72;69.13;101543.34;5076364;27;45314;-69
2022/10/13 09:01:15;;;;;;;;;5.00;5.00;;;;;16.37;69.66;101484.81;5076481;28;45539;-70
2022/10/13 09:04:09;;;;;;;;;2.75;2.75;;;;;16.77;69.83;101538.47;5076256;28;45527;-69
2022/10/13 09:06:51;;;;;;;;;2.50;2.50;;;;;16.75;69.30;101526.94;5075767;28;47416;-68
2022/10/13 09:09:17;;;;;;;;;5.75;5.75;;;;;16.77;68.99;101519.59;5076043;27;45374;-69
2022/10/13 09:11:46;;;;;;;;;4.50;4.50;;;;;17.06;69.80;101529.22;5076105;28;45278;-69
2022/10/13 09:14:31;;;;;;;;;4.25;3.25;;;;;17.22;69.21;101534.34;5076063;28;45465;-70
2022/10/13 09:17:17;;;;;;;;;3.25;3.25;;;;;17.32;68.02;101538.09;5075616;27;46330;-70
2022/10/13 09:19:45;;;;;;;;;4.00;3.00;;;;;17.21;68.16;101532.63;5075870;27;45361;-70
2022/10/13 09:22:34;;;;;;;;;4.00;4.00;;;;;17.09;69.35;101535.28;5075887;27;45306;-70
2022/10/13 09:25:06;;;;;;;;;2.67;2.67;;;;;17.11;68.33;101532.47;5073101;28;45769;-68
2022/10/13 09:27:46;;;;;;;;;3.25;2.00;;;;;17.10;68.98;101525.34;5074155;28;47492;-69
2022/10/13 09:30:37;;;;;;;;;2.75;2.50;;;;;16.97;68.69;101530.78;5075587;28;45444;-69
2022/10/13 09:33:07;;;;;;;;;5.00;4.00;;;;;17.01;68.86;101523.34;5075769;28;45333;-70
2022/10/13 09:35:41;;;;;;;;;4.67;4.67;;;;;17.02;69.00;101517.84;5075591;28;45372;-69
2022/10/13 09:38:12;;;;;;;;;2.00;2.00;;;;;17.06;69.08;101516.63;5075500;28;45790;-70
2022/10/13 09:40:39;;;;;;;;;2.00;2.00;;;;;16.94;69.58;101501.38;5075559;28;45396;-70
2022/10/13 09:43:26;;;;;;;;;4.00;2.00;;;;;17.07;68.82;101520.19;5075396;28;45378;-69
2022/10/13 09:45:52;;;;;;;;;2.00;2.00;;;;;16.85;67.93;101456.22;5056974;28;45377;-68
2022/10/13 09:48:27;;;;;;;;;4.00;2.00;;;;;17.15;68.07;101502.47;5075214;28;46757;-69
2022/10/13 09:50:54;;;;;;;;;4.75;2.75;;;;;17.35;67.63;101521.66;5075489;28;45390;-69
2022/10/13 09:53:40;;;;;;;;;4.50;3.00;;;;;17.41;68.63;101518.50;5075554;27;45408;-69
2022/10/13 09:56:24;;;;;;;;;4.25;4.25;;;;;17.53;68.09;101529.34;5075176;27;45281;-69
2022/10/13 09:59:06;;;;;;;;;6.00;1.67;;;;;17.54;68.24;101528.34;5074911;28;45868;-69
2022/10/13 10:01:36;;;;;;;;;4.00;2.50;;;;;17.56;68.14;101527.25;5075162;27;45487;-70
2022/10/13 10:04:08;;;;;;;;;7.50;3.50;;;;;17.57;68.00;101534.38;5075140;28;45311;-69
2022/10/13 10:06:35;;;;;;;;;3.00;3.00;;;;;17.22;67.72;101466.94;5074994;28;45504;-70
2022/10/13 10:09:21;;;;;;;;;4.00;3.00;;;;;17.54;68.32;101520.28;5074870;28;46213;-70
2022/10/13 10:11:52;;;;;;;;;3.00;3.00;;;;;17.55;68.24;101516.59;5074773;27;45391;-70
2022/10/13 10:14:26;;;;;;;;;4.33;3.00;;;;;17.57;68.34;101518.19;5075562;27;45508;-70
2022/10/13 10:17:03;;;;;;;;;2.75;2.50;;;;;17.41;67.97;101498.75;5075161;28;45379;-69
2022/10/13 10:19:37;;;;;;;;;3.75;2.75;;;;;17.13;69.07;101461.28;5074884;28;46315;-69
2022/10/13 10:22:24;;;;;;;;;7.33;4.67;;;;;17.58;68.32;101527.16;5074876;28;45400;-69
2022/10/13 10:25:32;;;;;;;;;2.33;2.33;;;;;17.52;69.20;101528.47;5074083;28;45238;-69
2022/10/13 10:28:00;;;;;;;;;3.00;3.00;;;;;17.57;68.98;101523.59;5050713;28;45485;-70
2022/10/13 10:30:28;;;;;;;;;6.75;2.75;;;;;17.53;68.95;101505.06;5051712;28;46209;-71
2022/10/13 10:32:56;;;;;;;;;3.50;3.50;;;;;17.64;68.59;101513.19;5051610;28;45440;-71
2022/10/13 10:35:31;;;;;;;;;4.75;4.50;;;;;17.71;69.09;101514.44;5052037;28;45433;-70
2022/10/13 10:38:08;;;;;;;;;4.25;4.25;;;;;17.66;68.56;101509.38;5052060;28;45378;-70
2022/10/13 10:40:49;;;;;;;;;4.67;3.00;;;;;17.30;68.42;101451.91;5051105;28;45655;-70
2022/10/13 10:43:24;;;;;;;;;4.00;4.00;;;;;17.72;69.04;101499.09;5051501;28;45393;-69
2022/10/13 10:45:49;;;;;;;;;4.33;3.33;;;;;17.80;68.63;101496.66;5051806;28;45456;-70
2022/10/13 10:48:23;;;;;;;;;3.33;2.67;;;;;17.92;68.71;101497.56;5051785;28;45444;-70
2022/10/13 10:50:52;;;;;;;;;2.67;2.67;;;;;17.23;68.48;101374.31;5034869;28;47988;-70
2022/10/13 10:53:33;;;;;;;;;6.50;4.75;;;;;17.98;68.42;101502.50;5035978;28;45404;-69
2022/10/13 10:56:03;;;;;;;;;3.00;2.67;;;;;17.94;68.42;101492.94;5051723;28;45463;-69
2022/10/13 10:58:42;;;;;;;;;3.00;3.00;;;;;17.89;68.28;101505.88;5051199;28;45582;-71
2022/10/13 11:01:10;;;;;;;;;2.00;2.00;;;;;17.82;68.55;101506.34;5034120;28;45701;-69
2022/10/13 11:03:49;;;;;;;;;4.00;3.00;;;;;17.77;69.11;101500.44;5051777;28;45434;-69
2022/10/13 11:06:14;;;;;;;;;2.50;2.50;;;;;17.79;68.58;101501.19;5054126;28;45362;-68
2022/10/13 11:08:43;;;;;;;;;3.50;3.50;;;;;17.79;69.31;101498.50;5052170;28;45471;-72
2022/10/13 11:11:29;;;;;;;;;3.00;3.00;;;;;17.83;69.36;101491.88;5069483;28;45549;-72
2022/10/13 11:13:58;;;;;;;;;5.67;3.33;;;;;17.53;69.70;101441.19;5072885;27;45418;-71
2022/10/13 11:16:40;;;;;;;;;7.25;4.00;;;;;17.85;69.58;101496.31;5074389;28;45333;-70
2022/10/13 11:19:35;;;;;;;;;3.00;2.67;;;;;17.79;69.98;101492.25;5073810;28;45482;-69
2022/10/13 11:22:00;;;;;;;;;5.25;5.25;;;;;17.72;70.54;101489.19;5073279;27;45328;-68
2022/10/13 11:24:38;;;;;;;;;2.67;2.67;;;;;17.68;72.04;101482.31;5073517;28;45314;-69
2022/10/13 11:27:15;;;;;;;;;2.00;2.00;;;;;17.64;72.97;101486.22;5073922;27;45241;-69
2022/10/13 11:29:45;;;;;;;;;8.25;5.00;;;;;17.65;73.12;101483.41;5073246;27;45493;-68
2022/10/13 11:35:12;;;;;;;;;5.25;4.75;;;;;17.61;74.20;101483.75;5068197;27;45401;-70